Time;durP1;ratioP1;P1;durP2;ratioP2;P2;SDS_P1;SDS_P2;PMS_P1;PMS_P2;Temp;Humidity;BMP_temperature;BMP_pressure;BME280_temperature;BME280_humidity;BME280_pressure;Samples;Min_cycle;Max_cycle;Signal;HPM_P1;HPM_P2
2021/07/20 00:01:41;;;;;;;10.90;9.65;;;;;;;16.85;64.01;100507.27;128207;1098;22369;-76
2021/07/20 00:04:11;;;;;;;;;;;;;;;16.78;64.29;100508.30;128259;1098;22377;-76
2021/07/20 00:06:50;;;;;;;14.50;10.08;;;;;;;16.70;64.80;100503.95;128238;1096;21263;-76
2021/07/20 00:09:19;;;;;;;13.40;8.90;;;;;;;16.67;64.88;100499.84;128229;1098;22424;-76
2021/07/20 00:11:49;;;;;;;12.68;8.68;;;;;;;16.66;65.15;100503.55;128211;1096;23118;-75
2021/07/20 00:14:18;;;;;;;12.15;9.33;;;;;;;16.64;65.18;100502.10;128144;1098;22401;-75
2021/07/20 00:16:48;;;;;;;14.70;9.95;;;;;;;16.64;65.42;100505.58;128249;1098;24514;-76
2021/07/20 00:19:17;;;;;;;10.10;8.88;;;;;;;16.63;65.10;100505.80;128201;1097;22376;-76
2021/07/20 00:21:49;;;;;;;11.60;9.70;;;;;;;16.62;65.77;100510.29;128187;1098;24537;-76
2021/07/20 00:24:18;;;;;;;10.30;8.98;;;;;;;16.61;65.49;100510.50;128163;1098;25007;-75
2021/07/20 00:26:48;;;;;;;11.50;9.83;;;;;;;16.59;65.84;100515.20;128208;1098;22367;-76
2021/07/20 00:29:17;;;;;;;13.55;10.90;;;;;;;16.57;66.35;100509.28;128173;1098;22804;-75
2021/07/20 00:31:47;;;;;;;13.68;9.60;;;;;;;16.54;66.07;100501.68;128197;1098;22372;-75
2021/07/20 00:34:17;;;;;;;12.03;9.23;;;;;;;16.51;66.02;100510.08;128161;1098;22414;-75
2021/07/20 00:36:46;;;;;;;11.30;10.03;;;;;;;16.48;65.92;100503.30;128199;1098;22388;-75
2021/07/20 00:39:16;;;;;;;15.65;10.80;;;;;;;16.45;66.25;100504.52;128152;1098;22390;-75
2021/07/20 00:41:46;;;;;;;11.68;9.90;;;;;;;16.41;66.20;100497.95;128261;1098;22392;-74
2021/07/20 00:44:15;;;;;;;12.33;10.00;;;;;;;16.40;66.55;100500.84;128227;1097;22824;-75
2021/07/20 00:46:45;;;;;;;17.98;10.85;;;;;;;16.40;66.69;100501.66;128219;1098;22372;-75
2021/07/20 00:49:15;;;;;;;13.38;11.58;;;;;;;16.40;66.63;100508.84;128202;1098;22421;-75
2021/07/20 00:51:44;;;;;;;11.63;10.18;;;;;;;16.40;67.20;100509.66;128253;1098;22379;-75
2021/07/20 00:54:14;;;;;;;12.33;10.35;;;;;;;16.40;66.91;100506.98;128251;1098;22396;-74
2021/07/20 00:56:45;;;;;;;16.03;9.97;;;;;;;16.39;67.10;100505.35;128214;1098;22384;-74
2021/07/20 00:59:16;;;;;;;15.28;10.80;;;;;;;16.39;67.21;100505.35;128176;1098;22400;-75
2021/07/20 01:01:48;;;;;;;11.73;10.28;;;;;;;16.38;67.12;100506.36;128208;1098;22394;-75
2021/07/20 01:04:18;;;;;;;12.05;9.83;;;;;;;16.38;67.10;100501.02;128184;1098;22394;-75
2021/07/20 01:06:52;;;;;;;13.55;11.18;;;;;;;16.36;67.12;100505.76;128234;1098;22372;-74
2021/07/20 01:09:24;;;;;;;12.15;10.50;;;;;;;16.36;67.43;100497.76;128176;1098;22390;-75
2021/07/20 01:11:55;;;;;;;;;;;;;;;16.32;67.32;100501.02;128230;1098;22387;-75
2021/07/20 01:14:26;;;;;;;15.33;10.98;;;;;;;16.28;67.42;100499.78;128216;1098;21328;-73
2021/07/20 01:16:57;;;;;;;13.03;9.95;;;;;;;16.30;67.64;100506.56;128253;1098;22381;-75
2021/07/20 01:19:32;;;;;;;12.00;9.30;;;;;;;16.33;67.79;100500.83;128225;1098;22416;-75
2021/07/20 01:22:04;;;;;;;13.40;10.65;;;;;;;16.36;67.98;100497.76;128262;1098;22443;-76
2021/07/20 01:24:35;;;;;;;15.08;10.88;;;;;;;16.40;67.76;100493.66;128212;1098;22357;-76
2021/07/20 01:27:05;;;;;;;14.90;10.90;;;;;;;16.42;67.61;100496.92;128212;1096;22391;-75
2021/07/20 01:29:37;;;;;;;11.70;10.10;;;;;;;16.46;68.00;100495.52;128221;1098;22372;-76
2021/07/20 01:32:11;;;;;;;13.18;10.35;;;;;;;16.46;67.63;100486.67;128269;1098;24991;-74
2021/07/20 01:34:42;;;;;;;13.23;10.60;;;;;;;16.46;67.53;100490.19;128197;1096;22369;-75
2021/07/20 01:37:15;;;;;;;17.08;11.28;;;;;;;16.45;67.66;100483.19;128249;1098;22376;-75
2021/07/20 01:39:48;;;;;;;13.23;10.13;;;;;;;16.45;67.49;100488.52;128194;1098;22374;-75
2021/07/20 01:42:19;;;;;;;;;;;;;;;16.39;67.53;100484.03;128183;1098;22474;-75
2021/07/20 01:44:51;;;;;;;14.63;10.58;;;;;;;16.34;67.85;100481.13;128330;1098;22908;-75
2021/07/20 01:47:24;;;;;;;12.28;10.45;;;;;;;16.35;67.81;100480.09;128152;1098;22368;-75
2021/07/20 01:49:56;;;;;;;15.08;10.25;;;;;;;16.33;68.02;100474.16;128188;1098;22391;-75
2021/07/20 01:52:27;;;;;;;12.50;10.65;;;;;;;16.33;68.19;100474.16;127975;1098;22372;-75
2021/07/20 01:54:58;;;;;;;14.03;10.35;;;;;;;16.32;68.51;100474.35;128193;1098;22374;-76
2021/07/20 01:57:33;;;;;;;16.08;9.80;;;;;;;16.32;68.24;100467.17;128191;1098;24266;-76
2021/07/20 02:00:16;;;;;;;11.98;10.08;;;;;;;16.33;68.40;100473.35;128185;1098;22374;-76
2021/07/20 02:03:15;;;;;;;12.68;9.50;;;;;;;16.32;68.32;100474.35;128165;1097;22375;-75
2021/07/20 02:08:54;;;;;;;11.70;9.88;;;;;;;16.26;68.29;100468.00;128177;1098;22391;-77
2021/07/20 02:11:28;;;;;;;12.48;10.50;;;;;;;16.23;68.58;100466.56;128229;1098;22391;-75
2021/07/20 02:14:42;;;;;;;12.90;10.23;;;;;;;16.19;68.45;100464.48;127884;1100;22398;-76
2021/07/20 02:17:31;;;;;;;;;;;;;;;16.12;68.61;100466.31;127928;1101;24534;-74
2021/07/20 02:20:11;;;;;;;12.98;9.40;;;;;;;16.06;68.72;100467.11;127972;1101;22410;-75
2021/07/20 02:22:55;;;;;;;15.08;10.85;;;;;;;16.05;69.12;100468.14;127885;1100;22384;-74
2021/07/20 02:25:29;;;;;;;13.45;11.85;;;;;;;16.06;69.06;100472.44;127980;1101;22391;-74
2021/07/20 02:28:20;;;;;;;16.08;11.35;;;;;;;16.06;69.24;100464.45;127907;1101;22423;-75
2021/07/20 02:30:52;;;;;;;13.65;11.90;;;;;;;16.08;69.24;100459.75;127904;1101;22399;-75
2021/07/20 02:33:23;;;;;;;19.53;11.88;;;;;;;16.07;69.01;100468.77;127911;1100;22416;-75
2021/07/20 02:35:54;;;;;;;;;;;;;;;16.01;68.98;100467.72;127941;1101;23153;-75
2021/07/20 02:38:38;;;;;;;11.17;10.07;;;;;;;15.95;69.18;100472.00;127907;1100;22994;-75
2021/07/20 02:41:12;;;;;;;13.43;11.40;;;;;;;15.95;69.38;100473.84;127910;1101;22393;-76
2021/07/20 02:43:48;;;;;;;14.33;11.35;;;;;;;15.93;69.32;100471.39;127851;1101;22390;-75
2021/07/20 02:46:17;;;;;;;;;;;;;;;15.87;69.16;100466.05;128075;1098;23167;-74
2021/07/20 02:48:51;;;;;;;15.03;10.28;;;;;;;15.82;69.75;100477.28;128180;1097;23154;-74
2021/07/20 02:51:24;;;;;;;13.05;9.45;;;;;;;15.83;69.65;100483.42;128249;1098;24034;-75
2021/07/20 02:53:59;;;;;;;12.65;9.78;;;;;;;15.84;69.88;100479.76;128188;1098;23178;-75
2021/07/20 02:56:30;;;;;;;10.40;9.30;;;;;;;15.83;69.79;100484.27;128162;1097;22395;-75
2021/07/20 02:59:06;;;;;;;14.23;11.73;;;;;;;15.83;69.84;100478.09;128166;1098;22402;-74
2021/07/20 03:02:00;;;;;;;15.20;12.68;;;;;;;15.81;69.99;100477.49;128181;1098;22379;-75
2021/07/20 03:04:31;;;;;;;17.30;12.55;;;;;;;15.80;70.21;100478.52;128170;1098;22394;-76
2021/07/20 03:07:08;;;;;;;14.53;10.03;;;;;;;15.77;70.34;100479.73;127991;1098;22394;-76
2021/07/20 03:09:47;;;;;;;13.28;10.05;;;;;;;15.78;70.29;100477.89;128150;1098;24708;-76
2021/07/20 03:12:21;;;;;;;11.00;9.53;;;;;;;15.75;70.34;100479.91;127950;1098;22409;-75
2021/07/20 03:14:53;;;;;;;11.13;9.63;;;;;;;15.75;70.71;100485.23;128152;1098;22392;-74
2021/07/20 03:17:45;;;;;;;;;;;;;;;15.70;70.43;100486.88;128008;1098;24541;-76
2021/07/20 03:20:16;;;;;;;15.35;9.85;;;;;;;15.65;70.80;100479.43;128202;1098;21270;-76
2021/07/20 03:22:47;;;;;;;13.03;10.40;;;;;;;15.67;70.92;100487.27;127955;1098;25082;-75
2021/07/20 03:25:20;;;;;;;10.73;9.63;;;;;;;15.69;70.92;100486.06;127994;1098;24531;-75
2021/07/20 03:27:54;;;;;;;13.73;10.63;;;;;;;15.72;70.90;100487.48;127976;1098;22670;-75
2021/07/20 03:30:29;;;;;;;16.13;10.28;;;;;;;15.75;70.93;100484.42;127997;1098;22393;-75
2021/07/20 03:33:06;;;;;;;13.55;9.70;;;;;;;15.80;71.05;100494.50;127985;1098;22407;-77
2021/07/20 03:35:42;;;;;;;12.90;10.53;;;;;;;15.83;71.04;100492.27;127996;1098;22404;-75
2021/07/20 03:38:14;;;;;;;13.05;9.93;;;;;;;15.87;71.05;100490.02;128242;1098;22407;-75
2021/07/20 03:40:48;;;;;;;16.35;10.03;;;;;;;15.92;70.91;100498.22;127935;1101;24560;-75
2021/07/20 03:43:22;;;;;;;9.33;8.40;;;;;;;15.96;70.74;100497.64;127923;1101;22430;-74
2021/07/20 03:45:55;;;;;;;13.63;9.53;;;;;;;16.00;70.59;100493.55;127974;1100;22847;-75
2021/07/20 03:48:30;;;;;;;13.38;9.08;;;;;;;16.05;70.90;100497.45;127958;1101;22400;-76
2021/07/20 03:51:10;;;;;;;13.65;8.98;;;;;;;16.08;70.43;100492.55;127966;1101;22404;-77
2021/07/20 03:53:40;;;;;;;16.67;9.90;;;;;;;16.13;70.54;100490.11;127942;1101;22398;-75
2021/07/20 03:56:11;;;;;;;10.95;8.85;;;;;;;16.17;70.74;100493.20;127896;1101;23190;-76
2021/07/20 03:58:47;;;;;;;12.13;8.33;;;;;;;16.22;70.16;100493.39;127950;1098;22385;-76
2021/07/20 04:01:19;;;;;;;12.98;9.08;;;;;;;16.26;70.28;100493.81;128187;1098;22388;-77
2021/07/20 04:03:52;;;;;;;14.85;9.60;;;;;;;16.31;70.68;100497.53;128016;1098;22385;-75
2021/07/20 04:06:28;;;;;;;11.23;8.98;;;;;;;16.36;70.08;100496.91;128185;1098;22375;-75
2021/07/20 04:09:18;;;;;;;16.80;10.70;;;;;;;16.37;69.99;100496.73;128176;1098;24531;-75
2021/07/20 04:12:05;;;;;;;12.07;8.83;;;;;;;16.42;69.51;100499.59;128027;1098;22388;-75
2021/07/20 04:14:55;;;;;;;10.95;8.48;;;;;;;16.46;69.60;100500.85;128171;1098;22404;-76
2021/07/20 04:17:34;;;;;;;12.78;8.78;;;;;;;16.46;69.91;100492.85;128169;1098;22382;-75
2021/07/20 04:20:07;;;;;;;13.78;9.88;;;;;;;16.51;69.75;100500.23;128064;1098;24624;-74
2021/07/20 04:22:42;;;;;;;13.20;10.20;;;;;;;16.56;69.63;100496.95;127992;1098;22675;-76
2021/07/20 04:25:14;;;;;;;12.65;9.80;;;;;;;16.61;69.62;100491.84;128020;1098;22385;-75
2021/07/20 04:27:46;;;;;;;13.38;9.90;;;;;;;16.69;69.66;100494.29;128004;1098;22388;-75
2021/07/20 04:30:16;;;;;;;14.53;11.10;;;;;;;16.76;69.29;100494.33;127978;1098;22402;-75
2021/07/20 04:32:48;;;;;;;12.27;9.07;;;;;;;16.81;69.28;100492.70;128070;1098;22404;-75
2021/07/20 04:35:19;;;;;;;15.85;10.33;;;;;;;16.89;69.11;100497.00;128075;1098;24215;-75
2021/07/20 04:37:53;;;;;;;15.33;11.43;;;;;;;16.94;68.96;100506.03;128049;1098;22706;-76
2021/07/20 04:40:23;;;;;;;19.75;11.65;;;;;;;16.97;68.88;100512.81;128205;1098;22416;-76
2021/07/20 04:42:54;;;;;;;16.20;11.70;;;;;;;17.01;68.86;100506.03;127987;1098;22417;-76
2021/07/20 04:45:27;;;;;;;17.03;12.23;;;;;;;17.06;69.13;100506.25;128185;1098;22387;-75
2021/07/20 04:48:20;;;;;;;15.98;11.85;;;;;;;17.10;68.69;100514.66;128067;1098;24524;-75
2021/07/20 04:51:12;;;;;;;12.98;10.98;;;;;;;17.13;68.97;100511.58;128064;1098;24560;-75
2021/07/20 04:53:42;;;;;;;;;;;;;;;17.10;68.68;100518.15;128303;1098;22388;-75
2021/07/20 04:56:13;;;;;;;21.03;10.40;;;;;;;17.11;68.99;100516.30;128156;1098;24485;-75
2021/07/20 04:58:48;;;;;;;21.58;10.60;;;;;;;17.18;68.93;100509.09;128033;1096;22385;-76
2021/07/20 05:01:19;;;;;;;12.08;9.88;;;;;;;17.26;69.07;100511.57;128044;1098;22375;-76
2021/07/20 05:03:50;;;;;;;15.00;9.60;;;;;;;17.32;68.86;100513.38;128288;1098;22377;-74
2021/07/20 05:06:25;;;;;;;12.85;10.75;;;;;;;17.37;68.99;100510.92;128083;1098;22825;-75
2021/07/20 05:08:56;;;;;;;;;;;;;;;17.41;69.05;100517.48;128284;1098;22375;-75
2021/07/20 05:11:26;;;;;;;12.28;8.88;;;;;;;17.48;69.30;100511.31;128195;1098;21273;-74
2021/07/20 05:13:56;;;;;;;13.38;9.55;;;;;;;17.60;69.24;100512.31;128257;1098;22382;-74
2021/07/20 05:16:27;;;;;;;14.45;9.35;;;;;;;17.66;68.40;100519.50;128188;1098;22402;-76
2021/07/20 05:19:03;;;;;;;13.83;8.98;;;;;;;17.72;68.49;100521.30;128178;1098;22391;-75
2021/07/20 05:21:51;;;;;;;14.38;8.85;;;;;;;17.80;68.37;100520.30;128158;1098;22376;-76
2021/07/20 05:24:25;;;;;;;11.90;7.85;;;;;;;17.90;68.70;100519.86;128129;1098;22401;-76
2021/07/20 05:27:03;;;;;;;9.25;7.08;;;;;;;18.00;67.98;100525.57;128215;1097;22382;-77
2021/07/20 05:29:34;;;;;;;15.78;8.08;;;;;;;18.08;67.97;100536.01;128110;1098;22372;-74
2021/07/20 05:32:11;;;;;;;10.98;7.60;;;;;;;18.18;68.00;100533.70;128226;1098;24538;-75
2021/07/20 05:34:41;;;;;;;12.13;7.40;;;;;;;18.28;67.85;100530.56;128254;1098;22377;-77
2021/07/20 05:37:11;;;;;;;11.90;6.78;;;;;;;18.36;67.23;100535.68;128185;1096;22374;-75
2021/07/20 05:39:48;;;;;;;9.98;7.55;;;;;;;18.45;67.46;100541.58;128170;1098;22375;-76
2021/07/20 05:42:32;;;;;;;12.43;8.20;;;;;;;18.54;66.85;100537.63;128145;1098;22398;-76
2021/07/20 05:45:06;;;;;;;14.85;7.70;;;;;;;18.66;67.02;100543.93;128062;1098;22385;-75
2021/07/20 05:47:43;;;;;;;17.83;8.58;;;;;;;18.75;66.93;100541.83;128182;1098;25813;-76
2021/07/20 05:50:16;;;;;;;12.70;8.28;;;;;;;18.88;66.58;100546.27;128023;1098;22398;-76
2021/07/20 05:53:10;;;;;;;13.18;11.25;;;;;;;18.90;65.84;100542.34;128040;1098;22394;-75
2021/07/20 05:55:40;;;;;;;16.88;8.15;;;;;;;18.97;66.13;100542.29;128149;1098;22399;-75
2021/07/20 05:58:11;;;;;;;10.75;7.28;;;;;;;19.08;65.90;100557.63;128163;1098;24551;-75
2021/07/20 06:00:42;;;;;;;13.38;8.53;;;;;;;19.22;65.68;100545.77;128183;1098;22364;-76
2021/07/20 06:03:16;;;;;;;17.70;9.88;;;;;;;19.33;65.76;100544.25;128229;1098;22373;-75
2021/07/20 06:05:51;;;;;;;21.18;10.08;;;;;;;19.46;65.12;100545.95;128285;1098;22375;-74
2021/07/20 06:08:24;;;;;;;14.15;8.25;;;;;;;19.59;65.00;100553.04;128215;1098;22376;-76
2021/07/20 06:10:58;;;;;;;15.08;8.78;;;;;;;19.71;64.76;100557.48;128219;1098;22388;-76
2021/07/20 06:13:34;;;;;;;13.30;7.10;;;;;;;19.84;64.67;100551.16;128133;1098;24206;-76
2021/07/20 06:16:07;;;;;;;15.48;9.85;;;;;;;20.00;64.55;100544.38;128179;1098;22376;-73
2021/07/20 06:18:38;;;;;;;16.53;9.70;;;;;;;20.19;63.78;100551.36;128212;1098;22378;-75
2021/07/20 06:21:11;;;;;;;15.15;8.85;;;;;;;20.30;63.02;100551.63;128130;1098;25006;-75
2021/07/20 06:23:46;;;;;;;8.98;5.95;;;;;;;20.37;62.90;100557.72;128215;1098;22386;-75
2021/07/20 06:26:22;;;;;;;10.50;6.58;;;;;;;20.47;62.45;100559.86;128278;1098;22686;-74
2021/07/20 06:28:56;;;;;;;17.73;7.25;;;;;;;20.57;62.49;100562.84;128216;1097;22380;-76
2021/07/20 06:31:26;;;;;;;10.40;6.38;;;;;;;20.66;62.27;100564.98;128225;1097;22423;-75
2021/07/20 06:33:57;;;;;;;8.33;6.23;;;;;;;20.73;61.77;100572.94;128036;1098;22391;-76
2021/07/20 06:36:27;;;;;;;12.70;8.00;;;;;;;20.78;61.16;100573.05;128269;1098;22380;-76
2021/07/20 06:38:57;;;;;;;11.30;6.53;;;;;;;20.85;61.30;100581.00;128238;1098;22383;-76
2021/07/20 06:41:26;;;;;;;11.05;6.85;;;;;;;20.95;60.67;100572.39;128364;1098;22375;-76
2021/07/20 06:43:58;;;;;;;10.13;8.35;;;;;;;20.98;60.54;100578.11;128232;1098;24769;-76
2021/07/20 06:46:29;;;;;;;10.38;7.00;;;;;;;21.07;60.15;100581.30;128078;1098;22377;-75
2021/07/20 06:49:01;;;;;;;11.25;5.88;;;;;;;21.13;59.73;100578.50;128041;1098;22443;-74
2021/07/20 06:51:31;;;;;;;10.40;5.55;;;;;;;21.23;59.85;100574.42;127974;1098;22378;-75
2021/07/20 06:54:02;;;;;;;9.45;5.15;;;;;;;21.35;59.92;100580.63;127986;1101;25181;-80
2021/07/20 06:56:40;;;;;;;10.53;5.85;;;;;;;21.43;58.98;100574.92;128191;1098;22382;-77
2021/07/20 06:59:12;;;;;;;9.60;5.25;;;;;;;21.56;58.78;100581.94;127970;1098;22490;-75
2021/07/20 07:01:44;;;;;;;7.90;4.78;;;;;;;21.63;58.67;100576.44;127943;1098;22390;-75
2021/07/20 07:04:36;;;;;;;12.33;5.40;;;;;;;21.72;58.35;100575.82;128010;1101;23135;-76
2021/07/20 07:07:06;;;;;;;13.83;9.83;;;;;;;21.85;58.11;100577.44;128037;1098;22683;-76
2021/07/20 07:09:37;;;;;;;8.68;6.28;;;;;;;22.02;58.30;100572.14;128054;1098;25033;-75
2021/07/20 07:12:08;;;;;;;12.18;5.20;;;;;;;22.21;57.66;100564.76;128013;1098;22398;-75
2021/07/20 07:14:39;;;;;;;13.20;5.35;;;;;;;22.39;57.01;100563.73;128275;1098;22374;-76
2021/07/20 07:17:10;;;;;;;7.70;5.30;;;;;;;22.50;55.88;100568.27;128058;1098;24534;-76
2021/07/20 07:19:45;;;;;;;28.40;25.75;;;;;;;22.59;55.83;100566.80;128097;1098;23136;-75
2021/07/20 07:22:19;;;;;;;5.95;4.30;;;;;;;22.69;55.12;100568.86;128260;1098;23110;-76
2021/07/20 07:24:53;;;;;;;10.10;4.75;;;;;;;22.76;54.97;100564.16;128029;1098;22353;-76
2021/07/20 07:27:24;;;;;;;29.53;7.90;;;;;;;22.87;55.31;100574.04;128360;1098;22379;-74
2021/07/20 07:29:55;;;;;;;6.73;4.15;;;;;;;23.00;54.88;100570.25;128426;1098;22408;-75
2021/07/20 07:32:24;;;;;;;6.40;4.18;;;;;;;23.14;53.83;100574.23;128435;1098;22379;-76
2021/07/20 07:34:54;;;;;;;13.50;5.33;;;;;;;23.27;53.87;100564.20;128191;1098;22404;-77
2021/07/20 07:37:25;;;;;;;9.15;5.23;;;;;;;23.41;53.56;100566.29;128126;1101;22407;-74
2021/07/20 07:39:59;;;;;;;7.25;3.90;;;;;;;23.55;52.49;100558.66;128219;1101;22899;-76
2021/07/20 07:42:30;;;;;;;8.63;4.28;;;;;;;23.61;52.36;100567.64;128198;1101;22401;-76
2021/07/20 07:45:00;;;;;;;8.83;4.08;;;;;;;23.68;52.33;100569.13;128323;1101;22400;-76
2021/07/20 07:47:31;;;;;;;11.27;5.17;;;;;;;23.85;52.20;100568.26;128160;1101;22404;-75
2021/07/20 07:50:06;;;;;;;7.70;3.98;;;;;;;24.02;51.80;100562.80;128069;1101;22404;-74
2021/07/20 07:52:37;;;;;;;6.43;3.53;;;;;;;24.12;51.15;100571.82;128086;1099;22392;-75
2021/07/20 07:55:07;;;;;;;;;;;;;;;24.26;51.60;100566.03;128527;1098;24511;-75
2021/07/20 07:57:40;;;;;;;8.07;4.50;;;;;;;24.37;51.47;100571.30;128643;1098;21422;-75
2021/07/20 08:00:11;;;;;;;8.55;3.85;;;;;;;24.50;50.24;100566.61;128242;1098;22394;-76
2021/07/20 08:02:51;;;;;;;8.05;3.73;;;;;;;24.53;50.54;100568.80;128138;1098;22448;-75
2021/07/20 08:05:24;;;;;;;6.53;3.63;;;;;;;24.64;50.00;100571.33;128035;1098;22380;-75
2021/07/20 08:07:58;;;;;;;8.05;3.68;;;;;;;24.68;49.56;100570.83;128201;1096;22382;-76
2021/07/20 08:10:30;;;;;;;10.90;5.57;;;;;;;24.72;48.61;100563.84;127903;1098;22401;-76
2021/07/20 08:13:02;;;;;;;7.73;4.08;;;;;;;24.71;48.30;100571.13;127937;1098;22400;-77
2021/07/20 08:15:33;;;;;;;6.68;3.90;;;;;;;24.67;48.34;100570.02;127957;1098;22397;-75
2021/07/20 08:18:05;;;;;;;6.30;3.60;;;;;;;24.56;48.15;100563.71;127899;1098;24266;-75
2021/07/20 08:20:36;;;;;;;6.18;3.58;;;;;;;24.48;48.01;100563.34;127930;1099;22519;-74
2021/07/20 08:23:08;;;;;;;4.95;3.30;;;;;;;24.41;47.78;100571.64;127920;1099;22437;-75
2021/07/20 08:25:43;;;;;;;7.68;3.58;;;;;;;24.39;48.25;100569.18;127895;1101;22412;-75
2021/07/20 08:28:44;;;;;;;5.80;3.03;;;;;;;24.46;48.07;100568.17;127973;1098;22402;-75
2021/07/20 08:31:18;;;;;;;8.18;3.10;;;;;;;24.76;47.63;100565.78;127960;1098;22397;-75
2021/07/20 08:33:57;;;;;;;5.53;3.75;;;;;;;25.12;47.50;100560.68;128076;1098;22405;-75
2021/07/20 08:36:28;;;;;;;6.98;2.98;;;;;;;25.58;47.04;100564.49;127904;1099;22723;-73
2021/07/20 08:38:59;;;;;;;9.08;4.00;;;;;;;26.05;45.71;100566.36;127955;1101;22395;-75
2021/07/20 08:42:49;;;;;;;12.38;4.33;;;;;;;26.31;45.01;100563.73;127904;1101;24884;-74
2021/07/20 08:46:03;;;;;;;8.05;2.90;;;;;;;26.85;44.25;100566.00;127524;1104;23220;-74
2021/07/20 08:48:44;;;;;;;6.40;2.70;;;;;;;27.28;43.26;100563.83;127416;1105;24209;-74
2021/07/20 08:51:25;;;;;;;6.88;2.93;;;;;;;27.59;42.07;100561.88;127554;1101;22401;-75
2021/07/20 08:54:13;;;;;;;7.95;3.60;;;;;;;27.61;41.26;100556.97;127472;1101;23170;-75
2021/07/20 08:56:45;;;;;;;5.98;3.58;;;;;;;27.92;41.42;100556.88;127530;1101;22414;-74
2021/07/20 08:59:24;;;;;;;5.38;2.78;;;;;;;28.05;40.24;100567.14;127565;1101;22413;-74
2021/07/20 09:02:19;;;;;;;10.03;3.30;;;;;;;28.11;39.87;100570.65;127544;1101;24994;-76
2021/07/20 09:05:19;;;;;;;7.73;4.35;;;;;;;28.15;39.93;100556.22;127534;1101;22573;-75
2021/07/20 09:08:45;;;;;;;8.40;2.93;;;;;;;28.13;39.65;100565.77;127504;1101;22402;-76
2021/07/20 09:11:38;;;;;;;6.75;3.45;;;;;;;27.90;39.84;100569.94;127172;1102;24546;-76
2021/07/20 09:14:32;;;;;;;6.15;3.25;;;;;;;27.56;39.47;100557.00;127077;1105;22389;-74
2021/07/20 09:17:24;;;;;;;5.10;2.83;;;;;;;27.24;39.38;100559.23;127959;1105;22494;-76
2021/07/20 09:20:08;;;;;;;8.65;5.13;;;;;;;27.00;39.47;100551.64;127021;1107;23215;-75
2021/07/20 09:22:50;;;;;;;8.80;4.05;;;;;;;27.08;39.43;100551.08;127436;1104;22407;-78
2021/07/20 09:25:41;;;;;;;11.73;4.65;;;;;;;27.38;39.26;100557.58;127047;1105;24297;-76
2021/07/20 09:28:28;;;;;;;6.83;2.57;;;;;;;27.64;38.27;100561.04;127476;1104;22951;-75
2021/07/20 09:31:01;;;;;;;4.50;2.33;;;;;;;27.86;38.13;100556.11;127437;1103;23373;-75
2021/07/20 09:33:39;;;;;;;5.38;2.65;;;;;;;28.20;37.67;100551.88;127417;1104;24922;-76
2021/07/20 09:36:22;;;;;;;6.28;3.10;;;;;;;28.40;36.83;100553.69;127380;1103;24307;-75
2021/07/20 09:39:01;;;;;;;7.03;3.35;;;;;;;28.43;37.05;100558.56;127363;1102;22422;-77
2021/07/20 09:41:52;;;;;;;6.65;3.15;;;;;;;28.29;36.42;100559.16;127402;1104;22415;-76
2021/07/20 09:44:59;;;;;;;5.90;4.20;;;;;;;28.05;36.65;100556.28;127477;1104;22402;-74
2021/07/20 09:48:24;;;;;;;7.23;3.30;;;;;;;28.02;37.16;100551.40;127152;1105;24569;-74
2021/07/20 09:51:35;;;;;;;14.53;3.73;;;;;;;27.86;36.81;100547.97;126862;1106;22466;-73
2021/07/20 09:54:50;;;;;;;11.20;3.13;;;;;;;27.53;37.08;100540.47;126989;1107;22417;-75
2021/07/20 09:57:45;;;;;;;7.45;3.18;;;;;;;27.16;37.50;100549.77;126650;1105;22431;-74
2021/07/20 10:00:23;;;;;;;8.88;3.00;;;;;;;26.82;37.52;100541.33;126905;1105;22414;-74
2021/07/20 10:03:13;;;;;;;5.53;3.30;;;;;;;26.50;37.95;100537.00;126892;1105;22469;-73
2021/07/20 10:06:12;;;;;;;8.63;3.67;;;;;;;26.29;37.95;100530.68;126935;1105;22427;-74
2021/07/20 10:08:57;;;;;;;7.63;3.38;;;;;;;26.21;38.67;100531.22;126907;1105;22418;-73
2021/07/20 10:11:33;;;;;;;8.43;3.20;;;;;;;26.35;37.80;100531.52;126896;1105;22410;-75
2021/07/20 10:14:27;;;;;;;5.55;3.13;;;;;;;26.51;37.26;100519.65;126867;1105;24018;-75
2021/07/20 10:17:35;;;;;;;9.90;3.13;;;;;;;26.82;37.27;100520.46;126909;1104;24562;-75
2021/07/20 10:20:36;;;;;;;6.50;4.00;;;;;;;27.24;36.80;100516.66;126872;1105;22426;-74
2021/07/20 10:23:17;;;;;;;9.55;3.35;;;;;;;27.37;36.55;100518.79;126950;1103;22426;-75
2021/07/20 10:26:15;;;;;;;9.20;3.88;;;;;;;27.19;36.50;100522.91;127360;1105;23191;-74
2021/07/20 10:29:13;;;;;;;8.70;4.43;;;;;;;26.83;37.19;100516.69;127874;1101;22409;-75
2021/07/20 10:31:59;;;;;;;6.90;3.05;;;;;;;26.71;37.21;100508.81;127545;1101;22406;-74
2021/07/20 10:34:30;;;;;;;5.77;3.03;;;;;;;26.76;37.34;100505.31;127947;1098;22417;-75
2021/07/20 10:37:11;;;;;;;7.45;3.85;;;;;;;27.02;37.35;100507.98;127965;1098;22382;-74
2021/07/20 10:40:06;;;;;;;7.58;3.40;;;;;;;27.20;37.00;100508.26;128240;1098;22424;-75
2021/07/20 10:43:09;;;;;;;5.73;3.18;;;;;;;27.38;36.49;100500.61;128081;1098;23145;-74
2021/07/20 10:45:41;;;;;;;8.10;3.75;;;;;;;27.42;36.13;100498.97;128148;1098;22406;-76
2021/07/20 10:48:20;;;;;;;7.25;3.03;;;;;;;27.33;36.36;100500.64;128038;1096;25047;-75
2021/07/20 10:51:04;;;;;;;5.30;3.18;;;;;;;27.17;36.88;100503.38;128251;1098;24527;-76
2021/07/20 10:53:57;;;;;;;10.97;4.40;;;;;;;27.00;37.87;100500.13;128155;1098;22391;-74
2021/07/20 10:57:01;;;;;;;7.05;4.23;;;;;;;26.92;37.51;100498.77;128188;1098;22372;-75
2021/07/20 10:59:52;;;;;;;8.03;3.08;;;;;;;26.83;37.68;100503.13;127916;1101;22370;-74
2021/07/20 11:02:49;;;;;;;5.85;2.95;;;;;;;26.74;37.59;100505.56;127932;1101;22364;-74
2021/07/20 11:05:21;;;;;;;6.75;3.28;;;;;;;26.63;37.22;100493.11;127948;1101;24528;-75
2021/07/20 11:08:01;;;;;;;6.60;3.18;;;;;;;26.54;37.05;100502.86;127915;1101;22359;-75
2021/07/20 11:11:01;;;;;;;7.98;4.05;;;;;;;26.51;37.43;100503.39;127922;1101;22377;-74
2021/07/20 11:13:36;;;;;;;7.90;3.40;;;;;;;26.47;36.99;100500.41;127387;1101;22420;-74
2021/07/20 11:16:09;;;;;;;6.05;3.65;;;;;;;26.43;36.90;100501.20;127463;1103;22391;-74
2021/07/20 11:18:42;;;;;;;8.25;5.33;;;;;;;26.37;35.82;100497.67;127460;1104;22367;-75
2021/07/20 11:21:17;;;;;;;6.55;4.85;;;;;;;26.18;35.81;100502.77;127424;1101;22406;-74
2021/07/20 11:23:49;;;;;;;13.55;3.65;;;;;;;25.97;35.49;100499.22;127523;1101;22391;-77
2021/07/20 11:26:20;;;;;;;8.65;3.80;;;;;;;25.84;35.87;100507.02;127446;1101;22388;-78
2021/07/20 11:28:51;;;;;;;;;;;;;;;25.74;35.70;100497.75;127551;1105;22391;-78
2021/07/20 11:31:31;;;;;;;4.30;3.20;;;;;;;25.70;36.47;100495.85;127490;1101;22785;-78
2021/07/20 11:34:12;;;;;;;4.35;2.83;;;;;;;25.66;35.90;100495.56;127421;1101;24507;-77
2021/07/20 11:36:44;;;;;;;9.40;3.83;;;;;;;25.72;35.79;100502.60;127576;1101;22382;-78
2021/07/20 11:39:19;;;;;;;6.55;3.50;;;;;;;25.67;35.82;100491.77;127904;1101;25008;-77
2021/07/20 11:41:54;;;;;;;6.10;3.10;;;;;;;25.62;35.76;100501.75;127933;1100;22422;-78
2021/07/20 11:44:46;;;;;;;9.85;4.83;;;;;;;25.53;35.80;100491.45;127889;1101;22381;-77
2021/07/20 11:47:44;;;;;;;8.08;6.75;;;;;;;25.50;35.45;100491.97;127917;1101;22409;-78
2021/07/20 11:50:49;;;;;;;6.13;5.15;;;;;;;25.51;36.07;100492.78;127985;1098;22474;-79
2021/07/20 11:54:24;;;;;;;8.25;4.45;;;;;;;25.55;36.71;100486.57;128185;1098;24518;-78
2021/07/20 11:57:44;;;;;;;5.40;3.48;;;;;;;25.67;35.65;100480.14;127464;1101;22391;-78
2021/07/20 12:00:56;;;;;;;7.23;3.58;;;;;;;25.68;35.60;100473.64;127470;1101;24563;-77
2021/07/20 12:03:53;;;;;;;5.93;3.95;;;;;;;25.74;35.54;100484.22;126946;1104;25216;-77
2021/07/20 12:07:05;;;;;;;5.38;3.25;;;;;;;25.72;35.15;100480.95;126981;1105;22423;-79
2021/07/20 12:10:20;;;;;;;7.88;3.85;;;;;;;25.75;35.15;100475.02;126937;1105;22419;-78